Valenca, Brazil
Current Conditions -  °F | °C
As of 10:00 AM on Sunday 21 Dec 2014 (Local Time) from SBSC Reporting Station
Clear Clear  
Wind Chill: 91°   Ceiling: Unl
Heat Index: 94°   Visibility: 6mi
Dew Point: 66°   Wind: 16mph
Humidity: 43%   Direction: 360°N
Pressure: 29.8"   Gusts: NA
Location:  22.25°S, 43.7°W
Report Text: SBSC 211200Z 36014KT CAVOK 33/19 Q1009
Loading
Personal Weather Stations






























Interactive Weather Map New forecast layout! Learn more

10-Day Weather Forecast

Advertisements
Track Severe Weather on mobile